x

Frying Pan Shoals, Nc Buoy (41013) Wave Buoy

5:50pm - Sun 29th Mar 2015 All times are EDT. -4 hours from GMT.

  • Sig Wave height 3.0ft
  • Swell Direction
  • Peak Period 6s
  • Average Period 5s
  • Wind
    2mph, 4mph gusts
  • Sea Temp 65°f
  • Air Temp 47°f
  • Sea Pressure 1029mb
  • Frying Pan Shoals, Nc Buoy
  • Frying Pan Shoals, Nc Buoy

More Historic Weather Station data

Upgrade to MSW Pro to gain access to the past 30 days of data for over 8000 Wavebouys and Weather Stations around the globe.

Join Pro

Comparision Forecast

View Surf forecast
   
Sun 03/29 5:50pm 3ft 6s 5s 2 4 mph 1029mb 65f 47f
4:50pm 3.5ft 7s 5s 4 9 mph 1029.5mb 65f 44f
3:50pm 3.5ft 6s 5s 7 9 mph 1029.1mb 65f 44f
2:50pm 3.5ft 6s 5s 9 13 mph 1029.3mb 65f 42f
1:50pm 3.5ft 6s 5s 13 18 mph 1030.6mb 64f 42f
12:50pm 4ft 6s 5s 16 20 mph 1031.2mb 64f 42f
11:50am 4.5ft 6s 5s 16 20 mph 1031.4mb 64f 41f
10:50am 5ft 6s 5s 18 22 mph 1031.3mb 64f 41f
9:50am 5ft 6s 5s 20 25 mph 1030.5mb 64f 41f
8:50am 5ft 6s 5s 20 27 mph 1029.6mb 64f 42f
7:50am 5.5ft 6s 5s 22 29 mph 1028.3mb 64f 43f
6:50am 5.5ft 6s 5s 22 29 mph 1027.1mb 64f 44f
5:50am 5.5ft 6s 5s 22 27 mph 1026mb 64f 45f
4:50am 6ft 5s 5s 22 29 mph 1024.9mb 64f 45f
3:50am 5.5ft 5s 5s 25 29 mph 1024.2mb 64f 47f
2:50am 4.5ft 5s 4s 22 29 mph 1024mb 65f 49f
1:50am 4ft 5s 4s 20 25 mph 1023.7mb 65f 50f
12:50am 4ft 5s 4s 18 22 mph 1023.5mb 65f 50f
Sat 03/28 11:50pm 4.5ft 5s 4s 20 25 mph 1023.2mb 65f 51f
10:50pm 4ft 4s 4s 20 27 mph 1022.4mb 65f 52f
9:50pm 3ft 3s 4s 22 27 mph 1021.2mb 65f 53f
8:50pm 3ft 9s 4s 16 20 mph 1020.5mb 65f 54f
7:50pm 3ft 9s 5s 16 20 mph 1019.4mb 65f 53f
6:50pm 3ft 6s 4s 13 18 mph 1018.4mb 65f 53f
5:50pm 3.5ft 6s 5s 11 18 mph 1017.7mb 65f 53f
4:50pm 3.5ft 6s 5s 13 18 mph 1017.2mb 65f 51f
3:50pm 4ft 9s 5s 16 22 mph 1017.2mb 65f 51f
2:50pm 4ft 7s 5s 16 20 mph 1017.3mb 65f 50f
1:50pm 4.5ft 7s 5s 11 18 mph 1017.5mb 65f 50f
12:50pm 4.5ft 7s 5s 13 18 mph 1017.3mb 64f 49f
11:50am 4.5ft 8s 5s 16 20 mph 1017.3mb 64f 48f
10:50am 5ft 5s 5s 16 20 mph 1016.9mb 64f 48f
9:50am 5ft 5s 5s 18 22 mph 1015.9mb 64f 49f
8:50am 5.5ft 7s 5s 20 27 mph 1014.8mb 64f 49f
7:50am 5ft 8s 5s 18 22 mph 1014.1mb 64f 51f
6:50am 5.5ft 7s 5s 18 22 mph 1013.3mb 64f 51f
5:50am 6ft 7s 5s 20 27 mph 1012.2mb 65f 51f
4:50am 6.5ft 8s 5s 22 27 mph 1011.2mb 65f 51f
3:50am 6ft 8s 6s 22 27 mph 1010.6mb 65f 51f
2:50am 6ft 6s 5s 22 29 mph 1010.1mb 65f 50f
1:50am 6ft 8s 6s 16 20 mph 1009.7mb 65f 50f
12:50am 7.5ft 7s 6s 20 25 mph 1009.1mb 65f 51f
Fri 03/27 11:50pm 7.5ft 6s 5s 25 29 mph 1008.9mb 65f 50f
10:50pm 8ft 6s 5s 25 34 mph 1007.6mb 65f 52f
9:50pm 8ft 6s 5s 27 31 mph 1006.2mb 65f 53f
8:50pm 7.5ft 8s 5s 27 34 mph 1005mb 65f 54f
7:50pm 6ft 8s 5s 25 29 mph 1004.1mb 65f 57f
6:50pm 6ft 8s 6s 11 13 mph 1003.8mb 65f 61f
5:50pm 7.5ft 8s 6s 25 34 mph 1003.5mb 66f 63f
4:50pm 7ft 7s 5s 25 31 mph 1002.7mb 66f 68f
3:50pm 6.5ft 7s 5s 25 31 mph 1002.9mb 66f 68f
2:50pm 7ft 6s 5s 27 29 mph 1003.8mb 66f 67f
1:50pm 6.5ft 7s 5s 27 31 mph 1004.6mb 66f 67f
12:50pm 6ft 8s 5s 25 29 mph 1005.5mb 66f 67f
11:50am 6ft 8s 5s 22 27 mph 1005.4mb 65f 66f
10:50am 6ft 8s 5s 25 27 mph 1005.6mb 65f 67f
9:50am 6ft 8s 5s 20 22 mph 1005.9mb 65f 67f
8:50am 5.5ft 8s 5s 18 20 mph 1005.8mb 65f 66f
7:50am 5ft 8s 5s 20 27 mph 1005.6mb 65f 66f
6:50am 5ft 8s 6s 13 16 mph 1005.4mb 65f 66f
5:50am 5ft 7s 6s 11 16 mph 1006mb 66f 65f
4:50am 5ft 8s 6s 13 16 mph 1005.8mb 66f 66f
3:50am 5.5ft 8s 6s 11 16 mph 1006.3mb 66f 69f
2:50am 6ft 8s 6s 11 13 mph 1007.1mb 66f 71f
1:50am 5ft 8s 6s 18 22 mph 1008.1mb 66f 71f
12:50am 6ft 8s 6s 16 18 mph 1009.4mb 66f 71f
Thu 03/26 11:50pm 6ft 8s 6s 13 16 mph 1009.9mb 66f 71f
10:50pm 6ft 8s 6s 13 16 mph 1010.6mb 66f 70f
9:50pm 6ft 8s 6s 13 16 mph 1011.3mb 66f 70f
8:50pm 6.5ft 8s 6s 13 16 mph 1011.1mb 66f 70f
7:50pm 6ft 8s 6s 13
mph
1011.2mb 66f 70f
6:50pm 6ft 8s 6s 11 13 mph 1011.6mb 66f 69f
5:50pm 5.5ft 8s 6s 13 16 mph 1012mb 67f 69f
4:50pm 6ft 8s 6s 18 20 mph 1012.5mb 67f 69f
3:50pm 6ft 8s 6s 18 22 mph 1013.4mb 68f 69f
2:50pm  -   -   -  16 20 mph 1014mb 68f 69f
1:50pm 7ft 8s 6s 13 16 mph 1014.6mb 69f 69f
12:50pm 7ft 8s 6s 18 20 mph 1015.4mb 69f 69f
11:50am 7.5ft 7s 6s 20 22 mph 1016mb 69f 69f
10:50am 8ft 8s 6s 18 22 mph 1016.3mb 69f 70f
9:50am 9ft 8s 6s 22 29 mph 1015.6mb 69f 70f
8:50am 9ft 8s 6s 22 31 mph 1014.6mb 69f 71f
7:50am 8.5ft 8s 6s 27 34 mph 1015.1mb 69f 71f
6:50am 8ft 8s 6s 25 31 mph 1016.2mb 69f 73f
5:50am 8.5ft 8s 6s 25 34 mph 1016.1mb 69f 73f
4:50am 8ft 8s 6s 25 31 mph 1017mb 70f 73f
3:50am 8ft 8s 6s 25 31 mph 1018mb 70f 73f
2:50am 7.5ft 7s 6s 25 29 mph 1018.7mb 70f 73f
1:50am 7ft 8s 6s 25 27 mph 1019.6mb 70f 73f
12:50am 6.5ft 6s 5s 22 27 mph 1020.2mb 70f 73f
Wed 03/25 11:50pm 6ft 7s 5s 22 27 mph 1020.5mb 69f 73f